Chula Vista, CA (91912)

1:46 AM PST on December 28, 2014 (GMT -0800)
Chula Vista | Change Station
CLOSE
Current Station
Personal Weather Station
Location: Chula Vista, CA
Elevation: 50 ft
Nearby Weather Stations

Elev 50 ft 32.65 °N, 117.07 °W | Updated 1 minute ago

Clear
Clear
40.7 °F
Feels Like 41 °F
N
0.0
Wind Variable Wind from East
Gusts 1.0 mph

Today
High -- | Low -- °F
--% Chance of Precip.
Yesterday
High -- | Low -- °F
Precip. -- in
6:49 AM 4:50 PM
Waxing Crescent, 46% visible
Pressure 30.29 in
Visibility -9999.0 miles
Clouds Clear
Windchill 41 °F
Dew Point 29 °F
Humidity 63%
Rainfall 0.00 in
Snow Depth Not available.
UV 0 out of 12
Pollen 5.80 out of 12
Air Quality Not available.
Flu Activity Not available.
METAR KNRS 280856Z AUTO 07006KT CLR 08/M07 A3029 RMK AO2 SLP257 T00781067 57007 PWINO $

More Conditions Fewer Conditions

Pressure 30.29 in
Visibility -9999.0 miles
Clouds Clear
Windchill 41 °F
Dew Point 29 °F
Humidity 63%
Rainfall 0.00 in
Snow Depth Not available.
UV 0 out of 12
Pollen 5.80 out of 12
Air Quality Not available.
Flu Activity Not available.
METAR KNRS 280856Z AUTO 07006KT CLR 08/M07 A3029 RMK AO2 SLP257 T00781067 57007 PWINO $

More Conditions Fewer Conditions

10-Day Weather Forecast

Almanac

Astronomy

Dec. 28, 2014 Rise Set
Actual Time
Civil Twilight
Nautical Twilight
Astronomical Twilight
Moon
Length of Visible Light
Length of Day
Tomorrow will be .
, % of the Moon is Illuminated

Today's Extremes

State Highs State Lows

Community

WunderPhotos

Upload Photos

1,781,207 photos uploaded!

WunderBlogs® & News

Nearby

Air Quality

  Air Quality AQ Index Pollutant
Not available.

Snow Depth

Station Depth Elevation

Earthquake Activity

City Distance Mag. Time & Date
Minimum magnitude displayed is 2.5.

Coastal Water Temperatures

Place Temperature

Nearby Weather Stations